ZSSS

Shanghai Hongqiao International Airport

Shanghai, China
METAR ZSSS 191200Z 02006MPS 7000 BKN011 27/24 Q1001 NOSIG
Observed Flight Rules
Jun-19 @ 12:00 UTC (32 minutes ago) Marginal Visual Flight Rules
Wind Visibility Clouds
20° at 12 knots 7,001 meters
  • Broken at 1,100' AGL
Temperatures Readings
Current 27°C / 81°F
Dewpoint 24°C / 75°F
Humidity 84%
Altimeter 29.56" Hg
Pressure 1001 hPa
Elevation 7
METAR ZSSS 191200Z 02006MPS 7000 BKN011 27/24 Q1001 NOSIG
Observed Flight Rules
Jun-19 @ 12:00 UTC
(32 minutes ago)
MVFR
Wind Visibility
20° at 12 knots 7,001 meters
Clouds
  • Broken at 1,100' AGL
Temperature Dewpoint
27°C / 81°F 24°C / 75°F
Humidity Altimeter Pressure
84% 29.56" Hg 1001 hPa